sensor_id;sensor_type;location;lat;lon;timestamp;P1;durP1;ratioP1;P2;durP2;ratioP2
4885;SDS011;2457;51.788;6.136;2023-06-26T00:01:52;8.70;;;4.90;;
4885;SDS011;2457;51.788;6.136;2023-06-26T00:04:20;9.90;;;5.00;;
4885;SDS011;2457;51.788;6.136;2023-06-26T00:06:47;7.28;;;3.98;;
4885;SDS011;2457;51.788;6.136;2023-06-26T00:09:14;9.10;;;4.50;;
4885;SDS011;2457;51.788;6.136;2023-06-26T00:11:41;7.67;;;4.20;;
4885;SDS011;2457;51.788;6.136;2023-06-26T00:14:09;8.00;;;4.22;;
4885;SDS011;2457;51.788;6.136;2023-06-26T00:16:36;7.80;;;4.73;;
4885;SDS011;2457;51.788;6.136;2023-06-26T00:19:03;9.73;;;4.53;;
4885;SDS011;2457;51.788;6.136;2023-06-26T00:21:30;9.05;;;4.47;;
4885;SDS011;2457;51.788;6.136;2023-06-26T00:23:58;9.07;;;5.07;;
4885;SDS011;2457;51.788;6.136;2023-06-26T00:26:25;8.93;;;4.87;;
4885;SDS011;2457;51.788;6.136;2023-06-26T00:28:52;7.93;;;4.50;;
4885;SDS011;2457;51.788;6.136;2023-06-26T00:31:19;14.10;;;4.93;;
4885;SDS011;2457;51.788;6.136;2023-06-26T00:33:47;7.78;;;4.95;;
4885;SDS011;2457;51.788;6.136;2023-06-26T00:36:14;7.83;;;4.10;;
4885;SDS011;2457;51.788;6.136;2023-06-26T00:38:41;9.83;;;4.67;;
4885;SDS011;2457;51.788;6.136;2023-06-26T00:41:08;7.50;;;4.50;;
4885;SDS011;2457;51.788;6.136;2023-06-26T00:43:38;9.13;;;5.30;;
4885;SDS011;2457;51.788;6.136;2023-06-26T00:46:07;12.23;;;4.90;;
4885;SDS011;2457;51.788;6.136;2023-06-26T00:48:34;8.83;;;5.12;;
4885;SDS011;2457;51.788;6.136;2023-06-26T00:51:02;10.63;;;6.10;;
4885;SDS011;2457;51.788;6.136;2023-06-26T00:53:30;9.60;;;5.67;;
4885;SDS011;2457;51.788;6.136;2023-06-26T00:55:57;11.27;;;5.37;;
4885;SDS011;2457;51.788;6.136;2023-06-26T00:58:25;9.90;;;5.60;;
4885;SDS011;2457;51.788;6.136;2023-06-26T01:00:53;10.05;;;5.28;;
4885;SDS011;2457;51.788;6.136;2023-06-26T01:03:21;13.73;;;6.03;;
4885;SDS011;2457;51.788;6.136;2023-06-26T01:05:49;9.60;;;5.50;;
4885;SDS011;2457;51.788;6.136;2023-06-26T01:08:17;10.20;;;5.97;;
4885;SDS011;2457;51.788;6.136;2023-06-26T01:10:45;9.30;;;5.60;;
4885;SDS011;2457;51.788;6.136;2023-06-26T01:13:13;9.13;;;5.50;;
4885;SDS011;2457;51.788;6.136;2023-06-26T01:15:41;11.63;;;5.83;;
4885;SDS011;2457;51.788;6.136;2023-06-26T01:18:08;10.35;;;5.62;;
4885;SDS011;2457;51.788;6.136;2023-06-26T01:20:36;10.00;;;5.37;;
4885;SDS011;2457;51.788;6.136;2023-06-26T01:23:08;10.73;;;6.13;;
4885;SDS011;2457;51.788;6.136;2023-06-26T01:25:37;10.63;;;6.33;;
4885;SDS011;2457;51.788;6.136;2023-06-26T01:28:05;9.28;;;5.80;;
4885;SDS011;2457;51.788;6.136;2023-06-26T01:30:39;11.73;;;6.97;;
4885;SDS011;2457;51.788;6.136;2023-06-26T01:33:02;13.23;;;6.67;;
4885;SDS011;2457;51.788;6.136;2023-06-26T01:35:29;10.13;;;6.10;;
4885;SDS011;2457;51.788;6.136;2023-06-26T01:38:13;9.70;;;5.80;;
4885;SDS011;2457;51.788;6.136;2023-06-26T01:40:40;10.30;;;5.50;;
4885;SDS011;2457;51.788;6.136;2023-06-26T01:43:09;10.77;;;6.63;;
4885;SDS011;2457;51.788;6.136;2023-06-26T01:45:36;10.60;;;6.40;;
4885;SDS011;2457;51.788;6.136;2023-06-26T01:48:04;10.80;;;6.40;;
4885;SDS011;2457;51.788;6.136;2023-06-26T01:50:32;10.33;;;5.97;;
4885;SDS011;2457;51.788;6.136;2023-06-26T01:53:07;10.10;;;5.73;;
4885;SDS011;2457;51.788;6.136;2023-06-26T01:58:05;10.07;;;6.10;;
4885;SDS011;2457;51.788;6.136;2023-06-26T02:00:33;11.20;;;6.70;;
4885;SDS011;2457;51.788;6.136;2023-06-26T02:03:00;8.98;;;6.47;;
4885;SDS011;2457;51.788;6.136;2023-06-26T02:05:28;10.40;;;5.90;;
4885;SDS011;2457;51.788;6.136;2023-06-26T02:07:57;10.73;;;5.80;;
4885;SDS011;2457;51.788;6.136;2023-06-26T02:10:24;10.37;;;6.13;;
4885;SDS011;2457;51.788;6.136;2023-06-26T02:12:51;12.17;;;6.43;;
4885;SDS011;2457;51.788;6.136;2023-06-26T02:15:18;11.55;;;6.40;;
4885;SDS011;2457;51.788;6.136;2023-06-26T02:17:46;9.50;;;5.80;;
4885;SDS011;2457;51.788;6.136;2023-06-26T02:20:14;13.17;;;6.40;;
4885;SDS011;2457;51.788;6.136;2023-06-26T02:22:42;9.37;;;5.57;;
4885;SDS011;2457;51.788;6.136;2023-06-26T02:25:09;9.63;;;5.00;;
4885;SDS011;2457;51.788;6.136;2023-06-26T02:27:38;8.90;;;5.70;;
4885;SDS011;2457;51.788;6.136;2023-06-26T02:30:07;9.70;;;5.90;;
4885;SDS011;2457;51.788;6.136;2023-06-26T02:32:35;9.47;;;4.60;;
4885;SDS011;2457;51.788;6.136;2023-06-26T02:35:02;6.77;;;3.57;;
4885;SDS011;2457;51.788;6.136;2023-06-26T02:37:29;6.03;;;3.13;;
4885;SDS011;2457;51.788;6.136;2023-06-26T02:39:57;8.23;;;4.10;;
4885;SDS011;2457;51.788;6.136;2023-06-26T02:42:24;7.63;;;3.20;;
4885;SDS011;2457;51.788;6.136;2023-06-26T02:44:51;7.37;;;3.77;;
4885;SDS011;2457;51.788;6.136;2023-06-26T02:47:18;9.17;;;3.80;;
4885;SDS011;2457;51.788;6.136;2023-06-26T02:49:46;7.43;;;3.63;;
4885;SDS011;2457;51.788;6.136;2023-06-26T02:52:13;9.03;;;3.77;;
4885;SDS011;2457;51.788;6.136;2023-06-26T02:54:40;8.50;;;3.40;;
4885;SDS011;2457;51.788;6.136;2023-06-26T02:57:07;7.80;;;3.10;;
4885;SDS011;2457;51.788;6.136;2023-06-26T02:59:35;6.63;;;2.90;;
4885;SDS011;2457;51.788;6.136;2023-06-26T03:02:02;8.73;;;2.63;;
4885;SDS011;2457;51.788;6.136;2023-06-26T03:04:29;6.22;;;3.17;;
4885;SDS011;2457;51.788;6.136;2023-06-26T03:06:56;5.97;;;3.10;;
4885;SDS011;2457;51.788;6.136;2023-06-26T03:09:24;7.37;;;3.27;;
4885;SDS011;2457;51.788;6.136;2023-06-26T03:11:51;6.75;;;2.87;;
4885;SDS011;2457;51.788;6.136;2023-06-26T03:14:19;7.43;;;3.17;;
4885;SDS011;2457;51.788;6.136;2023-06-26T03:16:46;6.90;;;2.80;;
4885;SDS011;2457;51.788;6.136;2023-06-26T03:19:13;7.97;;;3.63;;
4885;SDS011;2457;51.788;6.136;2023-06-26T03:21:41;7.23;;;3.40;;
4885;SDS011;2457;51.788;6.136;2023-06-26T03:24:08;6.40;;;3.10;;
4885;SDS011;2457;51.788;6.136;2023-06-26T03:26:35;8.43;;;2.40;;
4885;SDS011;2457;51.788;6.136;2023-06-26T03:29:02;6.33;;;2.67;;
4885;SDS011;2457;51.788;6.136;2023-06-26T03:31:30;7.23;;;3.30;;
4885;SDS011;2457;51.788;6.136;2023-06-26T03:33:57;5.60;;;2.70;;
4885;SDS011;2457;51.788;6.136;2023-06-26T03:36:24;9.40;;;3.27;;
4885;SDS011;2457;51.788;6.136;2023-06-26T03:38:51;11.73;;;3.30;;
4885;SDS011;2457;51.788;6.136;2023-06-26T03:41:20;7.97;;;3.00;;
4885;SDS011;2457;51.788;6.136;2023-06-26T03:43:48;8.13;;;2.93;;
4885;SDS011;2457;51.788;6.136;2023-06-26T03:46:15;6.53;;;2.63;;
4885;SDS011;2457;51.788;6.136;2023-06-26T03:48:42;10.53;;;3.57;;
4885;SDS011;2457;51.788;6.136;2023-06-26T03:51:09;11.80;;;3.10;;
4885;SDS011;2457;51.788;6.136;2023-06-26T03:53:37;7.63;;;2.47;;
4885;SDS011;2457;51.788;6.136;2023-06-26T03:56:04;8.40;;;3.30;;
4885;SDS011;2457;51.788;6.136;2023-06-26T03:58:31;9.83;;;3.20;;
4885;SDS011;2457;51.788;6.136;2023-06-26T04:00:58;8.90;;;3.00;;
4885;SDS011;2457;51.788;6.136;2023-06-26T04:03:26;8.93;;;3.00;;
4885;SDS011;2457;51.788;6.136;2023-06-26T04:05:54;7.83;;;3.53;;
4885;SDS011;2457;51.788;6.136;2023-06-26T04:08:23;7.67;;;3.13;;
4885;SDS011;2457;51.788;6.136;2023-06-26T04:10:51;7.40;;;2.80;;
4885;SDS011;2457;51.788;6.136;2023-06-26T04:13:18;9.93;;;2.67;;
4885;SDS011;2457;51.788;6.136;2023-06-26T04:15:45;9.67;;;3.20;;
4885;SDS011;2457;51.788;6.136;2023-06-26T04:18:13;8.10;;;3.53;;
4885;SDS011;2457;51.788;6.136;2023-06-26T04:20:43;6.87;;;2.87;;
4885;SDS011;2457;51.788;6.136;2023-06-26T04:23:11;8.30;;;3.07;;
4885;SDS011;2457;51.788;6.136;2023-06-26T04:25:38;10.87;;;3.50;;
4885;SDS011;2457;51.788;6.136;2023-06-26T04:28:05;17.63;;;3.63;;
4885;SDS011;2457;51.788;6.136;2023-06-26T04:30:33;12.40;;;2.93;;
4885;SDS011;2457;51.788;6.136;2023-06-26T04:33:01;7.60;;;3.37;;
4885;SDS011;2457;51.788;6.136;2023-06-26T04:35:28;11.37;;;3.63;;
4885;SDS011;2457;51.788;6.136;2023-06-26T04:37:55;8.73;;;3.10;;
4885;SDS011;2457;51.788;6.136;2023-06-26T04:40:22;5.70;;;2.80;;
4885;SDS011;2457;51.788;6.136;2023-06-26T04:42:50;9.00;;;3.10;;
4885;SDS011;2457;51.788;6.136;2023-06-26T04:45:17;8.47;;;3.30;;
4885;SDS011;2457;51.788;6.136;2023-06-26T04:47:44;7.70;;;3.33;;
4885;SDS011;2457;51.788;6.136;2023-06-26T04:50:11;11.50;;;4.00;;
4885;SDS011;2457;51.788;6.136;2023-06-26T04:52:39;7.40;;;3.40;;
4885;SDS011;2457;51.788;6.136;2023-06-26T04:55:06;9.70;;;3.60;;
4885;SDS011;2457;51.788;6.136;2023-06-26T04:57:33;8.57;;;3.50;;
4885;SDS011;2457;51.788;6.136;2023-06-26T05:00:01;9.07;;;2.70;;
4885;SDS011;2457;51.788;6.136;2023-06-26T05:02:28;13.43;;;3.33;;
4885;SDS011;2457;51.788;6.136;2023-06-26T05:04:56;10.47;;;3.07;;
4885;SDS011;2457;51.788;6.136;2023-06-26T05:07:23;9.77;;;3.90;;
4885;SDS011;2457;51.788;6.136;2023-06-26T05:09:50;10.00;;;3.60;;
4885;SDS011;2457;51.788;6.136;2023-06-26T05:12:17;9.40;;;3.80;;
4885;SDS011;2457;51.788;6.136;2023-06-26T05:14:44;14.10;;;3.43;;
4885;SDS011;2457;51.788;6.136;2023-06-26T05:17:15;10.10;;;3.73;;
4885;SDS011;2457;51.788;6.136;2023-06-26T05:19:42;11.70;;;3.43;;
4885;SDS011;2457;51.788;6.136;2023-06-26T05:22:09;9.07;;;2.90;;
4885;SDS011;2457;51.788;6.136;2023-06-26T05:24:38;9.37;;;3.20;;
4885;SDS011;2457;51.788;6.136;2023-06-26T05:27:06;10.47;;;3.20;;
4885;SDS011;2457;51.788;6.136;2023-06-26T05:29:33;12.93;;;3.47;;
4885;SDS011;2457;51.788;6.136;2023-06-26T05:32:01;11.10;;;3.30;;
4885;SDS011;2457;51.788;6.136;2023-06-26T05:34:29;10.40;;;3.80;;
4885;SDS011;2457;51.788;6.136;2023-06-26T05:36:58;9.80;;;3.30;;
4885;SDS011;2457;51.788;6.136;2023-06-26T05:39:25;13.03;;;3.90;;
4885;SDS011;2457;51.788;6.136;2023-06-26T05:41:53;8.50;;;3.23;;
4885;SDS011;2457;51.788;6.136;2023-06-26T05:44:20;9.97;;;3.67;;
4885;SDS011;2457;51.788;6.136;2023-06-26T05:46:47;8.50;;;2.90;;
4885;SDS011;2457;51.788;6.136;2023-06-26T05:49:15;9.20;;;3.63;;
4885;SDS011;2457;51.788;6.136;2023-06-26T05:51:42;14.83;;;4.30;;
4885;SDS011;2457;51.788;6.136;2023-06-26T05:54:10;10.07;;;3.37;;
4885;SDS011;2457;51.788;6.136;2023-06-26T05:56:39;12.83;;;3.63;;
4885;SDS011;2457;51.788;6.136;2023-06-26T05:59:07;9.67;;;3.50;;
4885;SDS011;2457;51.788;6.136;2023-06-26T06:01:34;13.40;;;4.80;;
4885;SDS011;2457;51.788;6.136;2023-06-26T06:04:02;18.40;;;3.90;;
4885;SDS011;2457;51.788;6.136;2023-06-26T06:06:30;12.27;;;3.77;;
4885;SDS011;2457;51.788;6.136;2023-06-26T06:08:57;9.70;;;3.20;;
4885;SDS011;2457;51.788;6.136;2023-06-26T06:11:24;12.60;;;3.47;;
4885;SDS011;2457;51.788;6.136;2023-06-26T06:13:51;12.80;;;3.53;;
4885;SDS011;2457;51.788;6.136;2023-06-26T06:16:19;10.40;;;3.10;;
4885;SDS011;2457;51.788;6.136;2023-06-26T06:18:46;10.20;;;3.40;;
4885;SDS011;2457;51.788;6.136;2023-06-26T06:21:13;11.37;;;3.47;;
4885;SDS011;2457;51.788;6.136;2023-06-26T06:23:41;10.67;;;3.30;;
4885;SDS011;2457;51.788;6.136;2023-06-26T06:26:08;10.07;;;3.27;;
4885;SDS011;2457;51.788;6.136;2023-06-26T06:28:35;10.07;;;3.30;;
4885;SDS011;2457;51.788;6.136;2023-06-26T06:31:02;7.47;;;2.73;;
4885;SDS011;2457;51.788;6.136;2023-06-26T06:33:30;10.90;;;3.20;;
4885;SDS011;2457;51.788;6.136;2023-06-26T06:35:58;12.73;;;3.13;;
4885;SDS011;2457;51.788;6.136;2023-06-26T06:38:25;7.73;;;2.53;;
4885;SDS011;2457;51.788;6.136;2023-06-26T06:40:52;10.43;;;2.97;;
4885;SDS011;2457;51.788;6.136;2023-06-26T06:43:19;8.10;;;2.70;;
4885;SDS011;2457;51.788;6.136;2023-06-26T06:45:47;9.27;;;3.40;;
4885;SDS011;2457;51.788;6.136;2023-06-26T06:48:14;11.20;;;3.10;;
4885;SDS011;2457;51.788;6.136;2023-06-26T06:50:41;7.80;;;2.63;;
4885;SDS011;2457;51.788;6.136;2023-06-26T06:53:08;8.10;;;3.10;;
4885;SDS011;2457;51.788;6.136;2023-06-26T06:55:36;14.70;;;2.93;;
4885;SDS011;2457;51.788;6.136;2023-06-26T06:58:03;11.27;;;3.00;;
4885;SDS011;2457;51.788;6.136;2023-06-26T07:00:30;7.30;;;2.63;;
4885;SDS011;2457;51.788;6.136;2023-06-26T07:02:58;11.60;;;3.30;;
4885;SDS011;2457;51.788;6.136;2023-06-26T07:05:26;8.47;;;2.70;;
4885;SDS011;2457;51.788;6.136;2023-06-26T07:07:54;10.13;;;2.90;;
4885;SDS011;2457;51.788;6.136;2023-06-26T07:10:21;7.30;;;2.20;;
4885;SDS011;2457;51.788;6.136;2023-06-26T07:12:48;6.53;;;2.13;;
4885;SDS011;2457;51.788;6.136;2023-06-26T07:15:16;6.67;;;2.30;;
4885;SDS011;2457;51.788;6.136;2023-06-26T07:17:43;6.90;;;1.97;;
4885;SDS011;2457;51.788;6.136;2023-06-26T07:20:10;7.87;;;2.37;;
4885;SDS011;2457;51.788;6.136;2023-06-26T07:22:40;6.23;;;2.40;;
4885;SDS011;2457;51.788;6.136;2023-06-26T07:25:07;8.03;;;2.20;;
4885;SDS011;2457;51.788;6.136;2023-06-26T07:27:38;8.07;;;1.90;;
4885;SDS011;2457;51.788;6.136;2023-06-26T07:30:05;8.03;;;2.50;;
4885;SDS011;2457;51.788;6.136;2023-06-26T07:32:35;8.63;;;2.40;;
4885;SDS011;2457;51.788;6.136;2023-06-26T07:35:02;6.40;;;2.37;;
4885;SDS011;2457;51.788;6.136;2023-06-26T07:37:30;8.90;;;2.73;;
4885;SDS011;2457;51.788;6.136;2023-06-26T07:39:57;5.80;;;2.23;;
4885;SDS011;2457;51.788;6.136;2023-06-26T07:42:24;8.00;;;2.63;;
4885;SDS011;2457;51.788;6.136;2023-06-26T07:44:52;6.20;;;2.40;;
4885;SDS011;2457;51.788;6.136;2023-06-26T07:47:19;9.60;;;2.80;;
4885;SDS011;2457;51.788;6.136;2023-06-26T07:49:46;6.03;;;2.50;;
4885;SDS011;2457;51.788;6.136;2023-06-26T07:52:14;8.30;;;2.70;;
4885;SDS011;2457;51.788;6.136;2023-06-26T07:54:42;6.70;;;2.27;;
4885;SDS011;2457;51.788;6.136;2023-06-26T07:57:09;5.17;;;1.97;;
4885;SDS011;2457;51.788;6.136;2023-06-26T07:59:38;6.10;;;2.37;;
4885;SDS011;2457;51.788;6.136;2023-06-26T08:02:05;8.23;;;2.60;;
4885;SDS011;2457;51.788;6.136;2023-06-26T08:04:33;7.77;;;3.27;;
4885;SDS011;2457;51.788;6.136;2023-06-26T08:07:00;9.13;;;2.87;;
4885;SDS011;2457;51.788;6.136;2023-06-26T08:09:28;7.50;;;2.43;;
4885;SDS011;2457;51.788;6.136;2023-06-26T08:11:56;5.17;;;2.20;;
4885;SDS011;2457;51.788;6.136;2023-06-26T08:14:23;6.83;;;2.53;;
4885;SDS011;2457;51.788;6.136;2023-06-26T08:16:51;7.77;;;2.60;;
4885;SDS011;2457;51.788;6.136;2023-06-26T08:19:18;6.60;;;2.37;;
4885;SDS011;2457;51.788;6.136;2023-06-26T08:21:45;6.80;;;2.63;;
4885;SDS011;2457;51.788;6.136;2023-06-26T08:24:13;12.07;;;2.67;;
4885;SDS011;2457;51.788;6.136;2023-06-26T08:26:44;10.30;;;2.90;;
4885;SDS011;2457;51.788;6.136;2023-06-26T08:29:11;5.40;;;2.30;;
4885;SDS011;2457;51.788;6.136;2023-06-26T08:31:39;8.17;;;3.03;;
4885;SDS011;2457;51.788;6.136;2023-06-26T08:34:07;5.33;;;2.00;;
4885;SDS011;2457;51.788;6.136;2023-06-26T08:36:34;7.27;;;2.73;;
4885;SDS011;2457;51.788;6.136;2023-06-26T08:39:02;6.00;;;2.27;;
4885;SDS011;2457;51.788;6.136;2023-06-26T08:41:31;4.20;;;2.10;;
4885;SDS011;2457;51.788;6.136;2023-06-26T08:43:58;9.20;;;3.10;;
4885;SDS011;2457;51.788;6.136;2023-06-26T08:46:25;11.17;;;2.10;;
4885;SDS011;2457;51.788;6.136;2023-06-26T08:49:00;7.37;;;2.80;;
4885;SDS011;2457;51.788;6.136;2023-06-26T08:51:23;7.90;;;2.90;;
4885;SDS011;2457;51.788;6.136;2023-06-26T08:53:58;8.10;;;3.93;;
4885;SDS011;2457;51.788;6.136;2023-06-26T08:56:32;7.03;;;2.40;;
4885;SDS011;2457;51.788;6.136;2023-06-26T08:58:57;6.50;;;2.57;;
4885;SDS011;2457;51.788;6.136;2023-06-26T09:01:24;6.03;;;2.73;;
4885;SDS011;2457;51.788;6.136;2023-06-26T09:03:52;6.20;;;2.63;;
4885;SDS011;2457;51.788;6.136;2023-06-26T09:06:19;9.70;;;3.30;;
4885;SDS011;2457;51.788;6.136;2023-06-26T09:08:47;7.27;;;2.30;;
4885;SDS011;2457;51.788;6.136;2023-06-26T09:11:14;8.00;;;2.40;;
4885;SDS011;2457;51.788;6.136;2023-06-26T09:13:42;7.53;;;2.53;;
4885;SDS011;2457;51.788;6.136;2023-06-26T09:16:09;8.47;;;3.00;;
4885;SDS011;2457;51.788;6.136;2023-06-26T09:18:37;7.23;;;2.27;;
4885;SDS011;2457;51.788;6.136;2023-06-26T09:21:09;10.10;;;2.97;;
4885;SDS011;2457;51.788;6.136;2023-06-26T09:23:33;5.40;;;2.20;;
4885;SDS011;2457;51.788;6.136;2023-06-26T09:26:02;5.80;;;1.97;;
4885;SDS011;2457;51.788;6.136;2023-06-26T09:28:30;5.97;;;1.90;;
4885;SDS011;2457;51.788;6.136;2023-06-26T09:31:04;6.17;;;1.97;;
4885;SDS011;2457;51.788;6.136;2023-06-26T09:33:35;5.07;;;1.80;;
4885;SDS011;2457;51.788;6.136;2023-06-26T09:36:09;7.23;;;1.80;;
4885;SDS011;2457;51.788;6.136;2023-06-26T09:38:37;4.07;;;1.50;;
4885;SDS011;2457;51.788;6.136;2023-06-26T09:41:05;7.13;;;1.93;;
4885;SDS011;2457;51.788;6.136;2023-06-26T09:43:32;4.90;;;1.40;;
4885;SDS011;2457;51.788;6.136;2023-06-26T09:46:00;4.17;;;1.30;;
4885;SDS011;2457;51.788;6.136;2023-06-26T09:48:28;5.53;;;1.83;;
4885;SDS011;2457;51.788;6.136;2023-06-26T09:50:55;9.00;;;1.80;;
4885;SDS011;2457;51.788;6.136;2023-06-26T09:53:23;4.70;;;1.30;;
4885;SDS011;2457;51.788;6.136;2023-06-26T09:55:51;3.63;;;1.40;;
4885;SDS011;2457;51.788;6.136;2023-06-26T09:58:19;4.37;;;1.37;;
4885;SDS011;2457;51.788;6.136;2023-06-26T10:00:47;4.60;;;1.30;;
4885;SDS011;2457;51.788;6.136;2023-06-26T10:03:15;3.93;;;1.27;;
4885;SDS011;2457;51.788;6.136;2023-06-26T10:05:43;5.30;;;1.10;;
4885;SDS011;2457;51.788;6.136;2023-06-26T10:08:12;5.73;;;1.40;;
4885;SDS011;2457;51.788;6.136;2023-06-26T10:10:40;3.40;;;1.30;;
4885;SDS011;2457;51.788;6.136;2023-06-26T10:13:11;4.20;;;1.70;;
4885;SDS011;2457;51.788;6.136;2023-06-26T10:15:37;4.70;;;1.30;;
4885;SDS011;2457;51.788;6.136;2023-06-26T10:18:05;4.30;;;1.40;;
4885;SDS011;2457;51.788;6.136;2023-06-26T10:20:32;4.60;;;1.73;;
4885;SDS011;2457;51.788;6.136;2023-06-26T10:23:00;5.57;;;1.33;;
4885;SDS011;2457;51.788;6.136;2023-06-26T10:25:27;5.40;;;1.47;;
4885;SDS011;2457;51.788;6.136;2023-06-26T10:27:57;3.87;;;1.53;;
4885;SDS011;2457;51.788;6.136;2023-06-26T10:30:26;4.03;;;1.20;;
4885;SDS011;2457;51.788;6.136;2023-06-26T10:32:54;6.27;;;1.40;;
4885;SDS011;2457;51.788;6.136;2023-06-26T10:35:21;3.60;;;1.30;;
4885;SDS011;2457;51.788;6.136;2023-06-26T10:37:50;3.60;;;1.40;;
4885;SDS011;2457;51.788;6.136;2023-06-26T10:40:21;13.60;;;1.70;;
4885;SDS011;2457;51.788;6.136;2023-06-26T10:42:49;6.10;;;1.30;;
4885;SDS011;2457;51.788;6.136;2023-06-26T10:45:17;8.20;;;1.80;;
4885;SDS011;2457;51.788;6.136;2023-06-26T10:47:48;7.00;;;1.43;;
4885;SDS011;2457;51.788;6.136;2023-06-26T10:50:19;6.97;;;1.50;;
4885;SDS011;2457;51.788;6.136;2023-06-26T10:52:56;6.50;;;1.90;;
4885;SDS011;2457;51.788;6.136;2023-06-26T10:55:15;5.30;;;1.30;;
4885;SDS011;2457;51.788;6.136;2023-06-26T10:57:44;4.80;;;1.33;;
4885;SDS011;2457;51.788;6.136;2023-06-26T11:00:13;4.43;;;1.20;;
4885;SDS011;2457;51.788;6.136;2023-06-26T11:02:50;5.10;;;1.50;;
4885;SDS011;2457;51.788;6.136;2023-06-26T11:05:09;4.97;;;1.50;;
4885;SDS011;2457;51.788;6.136;2023-06-26T11:07:36;4.17;;;1.57;;
4885;SDS011;2457;51.788;6.136;2023-06-26T11:15:04;4.87;;;1.50;;
4885;SDS011;2457;51.788;6.136;2023-06-26T11:17:32;5.50;;;1.87;;
4885;SDS011;2457;51.788;6.136;2023-06-26T11:19:59;13.83;;;1.80;;
4885;SDS011;2457;51.788;6.136;2023-06-26T11:22:26;7.83;;;1.33;;
4885;SDS011;2457;51.788;6.136;2023-06-26T11:24:54;6.10;;;1.53;;
4885;SDS011;2457;51.788;6.136;2023-06-26T11:27:21;3.50;;;1.30;;
4885;SDS011;2457;51.788;6.136;2023-06-26T11:29:50;4.57;;;1.57;;
4885;SDS011;2457;51.788;6.136;2023-06-26T11:32:17;4.93;;;1.40;;
4885;SDS011;2457;51.788;6.136;2023-06-26T11:34:45;4.40;;;1.40;;
4885;SDS011;2457;51.788;6.136;2023-06-26T11:37:16;5.73;;;1.50;;
4885;SDS011;2457;51.788;6.136;2023-06-26T11:39:42;6.27;;;1.73;;
4885;SDS011;2457;51.788;6.136;2023-06-26T11:42:10;5.70;;;1.50;;
4885;SDS011;2457;51.788;6.136;2023-06-26T11:44:44;4.77;;;1.50;;
4885;SDS011;2457;51.788;6.136;2023-06-26T11:49:43;6.80;;;1.73;;
4885;SDS011;2457;51.788;6.136;2023-06-26T11:52:11;4.33;;;1.37;;
4885;SDS011;2457;51.788;6.136;2023-06-26T11:54:38;3.90;;;1.10;;
4885;SDS011;2457;51.788;6.136;2023-06-26T11:57:06;4.27;;;1.27;;
4885;SDS011;2457;51.788;6.136;2023-06-26T11:59:41;6.97;;;1.57;;
4885;SDS011;2457;51.788;6.136;2023-06-26T12:02:06;6.50;;;1.37;;
4885;SDS011;2457;51.788;6.136;2023-06-26T12:04:34;4.70;;;1.30;;
4885;SDS011;2457;51.788;6.136;2023-06-26T12:07:02;3.80;;;1.17;;
4885;SDS011;2457;51.788;6.136;2023-06-26T12:09:31;5.40;;;1.63;;
4885;SDS011;2457;51.788;6.136;2023-06-26T12:11:59;3.60;;;1.20;;
4885;SDS011;2457;51.788;6.136;2023-06-26T12:14:27;6.83;;;1.40;;
4885;SDS011;2457;51.788;6.136;2023-06-26T12:16:55;4.33;;;1.40;;
4885;SDS011;2457;51.788;6.136;2023-06-26T12:19:26;4.03;;;1.47;;
4885;SDS011;2457;51.788;6.136;2023-06-26T12:21:53;3.57;;;1.30;;
4885;SDS011;2457;51.788;6.136;2023-06-26T12:24:22;4.00;;;1.60;;
4885;SDS011;2457;51.788;6.136;2023-06-26T12:26:53;6.17;;;1.30;;
4885;SDS011;2457;51.788;6.136;2023-06-26T12:29:29;5.90;;;1.40;;
4885;SDS011;2457;51.788;6.136;2023-06-26T12:31:58;6.40;;;1.33;;
4885;SDS011;2457;51.788;6.136;2023-06-26T12:34:32;4.93;;;1.20;;
4885;SDS011;2457;51.788;6.136;2023-06-26T12:37:01;4.17;;;1.17;;
4885;SDS011;2457;51.788;6.136;2023-06-26T12:39:25;3.87;;;1.37;;
4885;SDS011;2457;51.788;6.136;2023-06-26T12:41:55;4.47;;;1.40;;
4885;SDS011;2457;51.788;6.136;2023-06-26T12:44:24;4.77;;;1.50;;
4885;SDS011;2457;51.788;6.136;2023-06-26T12:46:53;4.73;;;1.43;;
4885;SDS011;2457;51.788;6.136;2023-06-26T12:49:20;5.07;;;1.40;;
4885;SDS011;2457;51.788;6.136;2023-06-26T12:51:48;5.70;;;1.70;;
4885;SDS011;2457;51.788;6.136;2023-06-26T12:54:16;3.97;;;1.30;;
4885;SDS011;2457;51.788;6.136;2023-06-26T12:56:43;7.50;;;1.40;;
4885;SDS011;2457;51.788;6.136;2023-06-26T12:59:10;10.87;;;1.50;;
4885;SDS011;2457;51.788;6.136;2023-06-26T13:01:37;3.60;;;1.30;;
4885;SDS011;2457;51.788;6.136;2023-06-26T13:04:05;4.03;;;1.50;;
4885;SDS011;2457;51.788;6.136;2023-06-26T13:06:35;4.13;;;1.60;;
4885;SDS011;2457;51.788;6.136;2023-06-26T13:09:03;5.90;;;1.40;;
4885;SDS011;2457;51.788;6.136;2023-06-26T13:11:30;4.67;;;1.37;;
4885;SDS011;2457;51.788;6.136;2023-06-26T13:13:58;4.80;;;1.23;;
4885;SDS011;2457;51.788;6.136;2023-06-26T13:16:25;4.53;;;1.27;;
4885;SDS011;2457;51.788;6.136;2023-06-26T13:18:53;5.27;;;1.20;;
4885;SDS011;2457;51.788;6.136;2023-06-26T13:21:20;3.50;;;1.43;;
4885;SDS011;2457;51.788;6.136;2023-06-26T13:23:47;3.37;;;1.10;;
4885;SDS011;2457;51.788;6.136;2023-06-26T13:26:14;5.50;;;1.30;;
4885;SDS011;2457;51.788;6.136;2023-06-26T13:28:42;3.80;;;1.30;;
4885;SDS011;2457;51.788;6.136;2023-06-26T13:31:09;5.77;;;1.53;;
4885;SDS011;2457;51.788;6.136;2023-06-26T13:33:36;3.57;;;0.97;;
4885;SDS011;2457;51.788;6.136;2023-06-26T13:36:03;3.93;;;1.20;;
4885;SDS011;2457;51.788;6.136;2023-06-26T13:38:32;4.00;;;1.20;;
4885;SDS011;2457;51.788;6.136;2023-06-26T13:41:00;4.27;;;1.20;;
4885;SDS011;2457;51.788;6.136;2023-06-26T13:43:28;3.47;;;1.00;;
4885;SDS011;2457;51.788;6.136;2023-06-26T13:45:56;4.87;;;1.30;;
4885;SDS011;2457;51.788;6.136;2023-06-26T13:48:23;4.80;;;1.30;;
4885;SDS011;2457;51.788;6.136;2023-06-26T13:50:53;3.40;;;1.10;;
4885;SDS011;2457;51.788;6.136;2023-06-26T13:53:20;3.93;;;1.20;;
4885;SDS011;2457;51.788;6.136;2023-06-26T13:55:47;5.10;;;1.40;;
4885;SDS011;2457;51.788;6.136;2023-06-26T13:58:15;5.67;;;1.20;;
4885;SDS011;2457;51.788;6.136;2023-06-26T14:00:42;4.33;;;1.30;;
4885;SDS011;2457;51.788;6.136;2023-06-26T14:03:10;3.77;;;1.10;;
4885;SDS011;2457;51.788;6.136;2023-06-26T14:05:37;4.43;;;1.10;;
4885;SDS011;2457;51.788;6.136;2023-06-26T14:08:06;5.67;;;1.40;;
4885;SDS011;2457;51.788;6.136;2023-06-26T14:10:34;4.63;;;1.30;;
4885;SDS011;2457;51.788;6.136;2023-06-26T14:13:02;3.40;;;1.10;;
4885;SDS011;2457;51.788;6.136;2023-06-26T14:15:30;4.90;;;1.20;;
4885;SDS011;2457;51.788;6.136;2023-06-26T14:17:57;5.10;;;1.30;;
4885;SDS011;2457;51.788;6.136;2023-06-26T14:20:25;5.80;;;1.20;;
4885;SDS011;2457;51.788;6.136;2023-06-26T14:22:54;5.93;;;1.40;;
4885;SDS011;2457;51.788;6.136;2023-06-26T14:25:21;7.07;;;1.30;;
4885;SDS011;2457;51.788;6.136;2023-06-26T14:27:48;3.47;;;1.20;;
4885;SDS011;2457;51.788;6.136;2023-06-26T14:30:15;4.20;;;1.20;;
4885;SDS011;2457;51.788;6.136;2023-06-26T14:32:43;4.43;;;1.20;;
4885;SDS011;2457;51.788;6.136;2023-06-26T14:35:10;3.60;;;1.13;;
4885;SDS011;2457;51.788;6.136;2023-06-26T14:37:37;4.80;;;1.83;;
4885;SDS011;2457;51.788;6.136;2023-06-26T14:40:08;6.40;;;1.33;;
4885;SDS011;2457;51.788;6.136;2023-06-26T14:42:35;4.47;;;1.13;;
4885;SDS011;2457;51.788;6.136;2023-06-26T14:45:03;3.83;;;1.30;;
4885;SDS011;2457;51.788;6.136;2023-06-26T14:47:30;3.20;;;1.10;;
4885;SDS011;2457;51.788;6.136;2023-06-26T14:49:57;3.17;;;1.00;;
4885;SDS011;2457;51.788;6.136;2023-06-26T14:52:25;4.07;;;1.10;;
4885;SDS011;2457;51.788;6.136;2023-06-26T14:54:52;4.70;;;1.23;;
4885;SDS011;2457;51.788;6.136;2023-06-26T14:57:19;3.73;;;1.10;;
4885;SDS011;2457;51.788;6.136;2023-06-26T14:59:46;5.43;;;1.57;;
4885;SDS011;2457;51.788;6.136;2023-06-26T15:02:14;3.80;;;1.10;;
4885;SDS011;2457;51.788;6.136;2023-06-26T15:04:41;3.50;;;1.13;;
4885;SDS011;2457;51.788;6.136;2023-06-26T15:07:08;3.63;;;1.20;;
4885;SDS011;2457;51.788;6.136;2023-06-26T15:09:35;7.53;;;1.20;;
4885;SDS011;2457;51.788;6.136;2023-06-26T15:12:03;3.50;;;1.20;;
4885;SDS011;2457;51.788;6.136;2023-06-26T15:14:30;4.10;;;1.00;;
4885;SDS011;2457;51.788;6.136;2023-06-26T15:16:58;3.87;;;1.20;;
4885;SDS011;2457;51.788;6.136;2023-06-26T15:19:25;3.90;;;1.20;;
4885;SDS011;2457;51.788;6.136;2023-06-26T15:21:52;3.23;;;1.17;;
4885;SDS011;2457;51.788;6.136;2023-06-26T15:24:19;3.30;;;1.10;;
4885;SDS011;2457;51.788;6.136;2023-06-26T15:26:47;4.03;;;1.20;;